Forest fire From: 15-08-2018 20:00 Until: 16-08-2018 16:00 warning for: Forest fire Level: Yellow info button
suomi:
Metsäpalovaroitus on voimassa.

svenska:
Varning för skogsbrand gäller.

english:
A forest fire warning is in force. 


Thunder radar more information blitzortung!


Löydät sääaseman tiedot myös:

European Weather Network

Finland Weather Exchange

Weather Underground

AWEKAS



Weather Underground säähistoriasivu

Päivittäin yhteenveto Maaliskuu 16, 2017 Yksiköt:  Metriset    Englantilaiset   Molemmat
« Edellinen Päivä
Seuraava Päivä »
Päivittäin Viikoittain Kuukausittain Vuosittain Mukautettu
  Korkea: Matala: Keskiarvo:
Lämpötila: -17.8 °C -17.3 °C -16.2 °C
Kastepiste: -17.8 °C -19.3 °C -18.7 °C
Kosteus: Humidity % 55 % 71 %
Tuulen nopeus: 0 km/h 2.6 km/h 9.8 km/h
Tuulenpuuska: 0 km/h - -
Tuuli:- - WSW
Ilmanpaine: 0 hPa 33717.8 hPa -
Sade: 0 mm    
Historical Graphs
 
 
Taulukkotiedot Maaliskuu 16, 2017
Aika Lämpötila Kastepiste Ilmanpaine Tuuli Tuulen nopeus Tuulenpuuska Kosteus Sademäärä (tunneittain)
-17.8 °C -17.8 °C 0 hPa Calm     Humidity % 0 mm
00:00 -16.3 °C -18.5 °C 33731.3 hPa West 5.1 km/h 20.8 km/h 75 % 0 mm
00:15 -16.3 °C -18.5 °C 33731.3 hPa West 5.1 km/h 25.9 km/h 75 % 0 mm
00:30 -16.4 °C -18.5 °C 33741.5 hPa West 2.6 km/h 18.2 km/h 76 % 0 mm
00:45 -16.5 °C -18.5 °C 33741.5 hPa WSW 5.1 km/h 20.8 km/h 77 % 0 mm
01:00 -16.5 °C -18.5 °C 33751.6 hPa West 5.1 km/h 23.3 km/h 77 % 0 mm
01:15 -16.5 °C -18.5 °C 33751.6 hPa WSW 5.1 km/h 23.3 km/h 77 % 0 mm
01:30 -16.4 °C -18.4 °C 33765.2 hPa WSW 5.1 km/h 28.5 km/h 77 % 0 mm
01:45 -16.4 °C -18.4 °C 33765.2 hPa WSW 5.1 km/h 33.6 km/h 77 % 0 mm
02:00 -16.5 °C -18.5 °C 33775.4 hPa West 5.1 km/h 18.2 km/h 77 % 0 mm
02:15 -16.5 °C -18.5 °C 33775.4 hPa WSW 5.1 km/h 18.2 km/h 77 % 0 mm
02:30 -16.5 °C -18.4 °C 33775.4 hPa WNW 7.7 km/h 33.6 km/h 78 % 0 mm
02:45 -16.6 °C -18.4 °C 33775.4 hPa West 7.7 km/h 18.2 km/h 79 % 0 mm
03:00 -16.7 °C -18.5 °C 33788.9 hPa West 5.1 km/h 23.3 km/h 79 % 0 mm
03:15 -16.8 °C -18.5 °C 33799.1 hPa SW 5.1 km/h 15.6 km/h 80 % 0 mm
03:30 -16.8 °C -18.4 °C 33799.1 hPa WSW 5.1 km/h 20.8 km/h 81 % 0 mm
03:45 -16.8 °C -18.4 °C 33809.2 hPa WNW 5.1 km/h 23.3 km/h 81 % 0 mm
04:00 -16.8 °C -18.4 °C 33822.8 hPa WNW 5.1 km/h 28.5 km/h 81 % 0 mm
04:15 -16.9 °C -18.4 °C 33822.8 hPa West 7.7 km/h 20.8 km/h 82 % 0 mm
04:30 -16.9 °C -18.4 °C 33822.8 hPa WNW 7.7 km/h 20.8 km/h 82 % 0 mm
05:00 -17 °C -18.4 °C 33843.1 hPa West 10.3 km/h 23.3 km/h 83 % 0 mm
05:15 -17.1 °C -18.4 °C 33843.1 hPa West 5.1 km/h 18.2 km/h 83 % 0 mm
05:30 -17.1 °C -18.4 °C 33856.6 hPa West 10.3 km/h 28.5 km/h 83 % 0 mm
05:45 -17.1 °C -18.5 °C 33856.6 hPa WNW 7.7 km/h 31.1 km/h 83 % 0 mm
06:00 -17.2 °C -18.5 °C 33866.8 hPa WNW 7.7 km/h 23.3 km/h 84 % 0 mm
06:15 -17.2 °C -18.5 °C 33866.8 hPa WNW 7.7 km/h 20.8 km/h 84 % 0 mm
06:30 -17.2 °C -18.6 °C 33880.3 hPa WNW 7.7 km/h 31.1 km/h 84 % 0 mm
06:45 -17.3 °C -18.6 °C 33890.5 hPa WNW 7.7 km/h 36.2 km/h 85 % 0 mm
07:00 -17.3 °C -18.6 °C 33890.5 hPa West 7.7 km/h 28.5 km/h 85 % 0 mm
07:15 -17.3 °C -18.6 °C 33900.6 hPa WNW 7.7 km/h 28.5 km/h 84 % 0 mm
07:30 -17.3 °C -18.6 °C 33914.2 hPa WNW 10.3 km/h 25.9 km/h 84 % 0 mm
07:45 -17.2 °C -18.6 °C 33924.3 hPa WNW 10.3 km/h 33.6 km/h 84 % 0 mm
08:00 -17.1 °C -18.7 °C 33924.3 hPa WNW 10.3 km/h 31.1 km/h 82 % 0 mm
08:15 -17 °C -18.6 °C 33924.3 hPa NW 15.6 km/h 33.6 km/h 81 % 0 mm
08:30 -16.9 °C -18.6 °C 33937.9 hPa WNW 12.9 km/h 33.6 km/h 80 % 0 mm
08:45 -16.7 °C -18.6 °C 33948 hPa NW 15.6 km/h 28.5 km/h 78 % 0 mm
09:00 -16.6 °C -18.7 °C 33948 hPa NW 15.6 km/h 33.6 km/h 76 % 0 mm
09:15 -16.4 °C -18.6 °C 33958.2 hPa NW 15.6 km/h 28.5 km/h 75 % 0 mm
09:30 -16.3 °C -18.8 °C 33971.7 hPa NW 15.6 km/h 41.4 km/h 72 % 0 mm
09:45 -16.1 °C -18.7 °C 33971.7 hPa NW 18.2 km/h 31.1 km/h 71 % 0 mm
10:00 -15.9 °C -18.7 °C 33981.9 hPa NW 15.6 km/h 36.2 km/h 70 % 0 mm
10:15 -15.8 °C -18.8 °C 33992.1 hPa NW 15.6 km/h 36.2 km/h 68 % 0 mm
10:30 -15.6 °C -18.8 °C 33992.1 hPa NW 15.6 km/h 41.4 km/h 66 % 0 mm
10:45 -15.4 °C -18.8 °C 33992.1 hPa NW 15.6 km/h 31.1 km/h 65 % 0 mm
11:00 -15.4 °C -18.8 °C 34005.6 hPa NW 15.6 km/h 28.5 km/h 64 % 0 mm
11:15 -15.3 °C -19 °C 34015.8 hPa NW 15.6 km/h 36.2 km/h 62 % 0 mm
11:30 -15.1 °C -18.8 °C 34015.8 hPa NW 10.3 km/h 23.3 km/h 62 % 0 mm
11:45 -15.1 °C -18.9 °C 34015.8 hPa WNW 7.7 km/h 20.8 km/h 61 % 0 mm
12:15 -14.9 °C -18.9 °C 34029.3 hPa WNW 10.3 km/h 23.3 km/h 60 % 0 mm
12:30 -14.8 °C -18.8 °C 34029.3 hPa SW 7.7 km/h 20.8 km/h 60 % 0 mm
12:45 -14.8 °C -18.8 °C 34029.3 hPa West 7.7 km/h 23.3 km/h 59 % 0 mm
13:00 -14.6 °C -18.7 °C 34029.3 hPa West 7.7 km/h 25.9 km/h 59 % 0 mm
13:15 -14.6 °C -18.9 °C 34015.8 hPa West 7.7 km/h 18.2 km/h 57 % 0 mm
13:30 -14.6 °C -18.9 °C 34015.8 hPa WNW 7.7 km/h 15.6 km/h 57 % 0 mm
13:45 -14.5 °C -19 °C 34029.3 hPa WNW 7.7 km/h 25.9 km/h 56 % 0 mm
14:00 -14.5 °C -18.8 °C 34029.3 hPa WNW 7.7 km/h 25.9 km/h 57 % 0 mm
14:15 -14.4 °C -18.7 °C 34029.3 hPa SW 7.7 km/h 20.8 km/h 58 % 0 mm
14:30 -14.4 °C -18.9 °C 34029.3 hPa SW 10.3 km/h 20.8 km/h 56 % 0 mm
14:45 -14.3 °C -18.7 °C 34015.8 hPa West 5.1 km/h 23.3 km/h 57 % 0 mm
15:00 -14.1 °C -18.4 °C 34029.3 hPa SW 2.6 km/h 15.6 km/h 57 % 0 mm
15:15 -14.3 °C -19 °C 34029.3 hPa SW 10.3 km/h 25.9 km/h 55 % 0 mm
15:30 -14.4 °C -18.8 °C 34029.3 hPa SW 7.7 km/h 20.8 km/h 57 % 0 mm
15:45 -14.6 °C -18.7 °C 34029.3 hPa SSW 10.3 km/h 28.5 km/h 59 % 0 mm
16:00 -14.8 °C -18.7 °C 34029.3 hPa SSW 10.3 km/h 28.5 km/h 60 % 0 mm
16:15 -14.9 °C -19 °C 34029.3 hPa SW 10.3 km/h 25.9 km/h 59 % 0 mm
16:30 -15.2 °C -18.8 °C 34015.8 hPa SSW 7.7 km/h 25.9 km/h 63 % 0 mm
17:00 -15.7 °C -19.1 °C 34015.8 hPa SSW 10.3 km/h 28.5 km/h 65 % 0 mm
17:15 -15.9 °C -19 °C 34015.8 hPa SSW 10.3 km/h 25.9 km/h 67 % 0 mm
17:30 -16 °C -19 °C 34015.8 hPa SSW 12.9 km/h 31.1 km/h 68 % 0 mm
17:45 -16.2 °C -18.9 °C 34005.6 hPa SSW 7.7 km/h 18.2 km/h 70 % 0 mm
18:00 -16.2 °C -19 °C 34005.6 hPa SSW 10.3 km/h 33.6 km/h 70 % 0 mm
18:15 -16.3 °C -18.9 °C 33992.1 hPa SSW 10.3 km/h 18.2 km/h 72 % 0 mm
18:30 -16.5 °C -18.8 °C 33981.9 hPa SSW 12.9 km/h 23.3 km/h 74 % 0 mm
18:45 -16.7 °C -18.8 °C 33981.9 hPa SSW 7.7 km/h 23.3 km/h 76 % 0 mm
19:00 -16.8 °C -18.8 °C 33981.9 hPa SSW 10.3 km/h 25.9 km/h 77 % 0 mm
19:15 -16.9 °C -18.8 °C 33971.7 hPa SSW 7.7 km/h 20.8 km/h 78 % 0 mm
19:30 -16.9 °C -18.8 °C 33948 hPa SSW 12.9 km/h 28.5 km/h 78 % 0 mm
19:45 -17 °C -18.9 °C 33937.9 hPa SSW 7.7 km/h 20.8 km/h 78 % 0 mm
20:15 -17 °C -19 °C 33914.2 hPa SSW 10.3 km/h 25.9 km/h 77 % 0 mm
20:30 -17 °C -19.1 °C 33900.6 hPa SSW 12.9 km/h 28.5 km/h 76 % 0 mm
20:45 -16.9 °C -19.2 °C 33890.5 hPa SSW 12.9 km/h 36.2 km/h 75 % 0 mm
21:00 -16.9 °C -19.2 °C 33880.3 hPa SSW 15.6 km/h 36.2 km/h 74 % 0 mm
21:15 -16.9 °C -19.3 °C 33866.8 hPa SSW 15.6 km/h 38.8 km/h 73 % 0 mm
21:30 -16.8 °C -19.3 °C 33856.6 hPa SSW 15.6 km/h 38.8 km/h 72 % 0 mm
21:45 -16.7 °C -19.2 °C 33832.9 hPa SSW 15.6 km/h 44.1 km/h 72 % 0 mm
22:00 -16.4 °C -19.2 °C 33822.8 hPa SSW 18.2 km/h 41.4 km/h 70 % 0 mm
22:15 -16.4 °C -19.1 °C 33809.2 hPa SSW 18.2 km/h 41.4 km/h 70 % 0 mm
22:30 -16.3 °C -19.1 °C 33788.9 hPa SSW 12.9 km/h 36.2 km/h 70 % 0 mm
22:45 -16.3 °C -19.1 °C 33775.4 hPa SSW 12.9 km/h 28.5 km/h 70 % 0 mm
23:00 -16.2 °C -19 °C 33775.4 hPa SSW 12.9 km/h 23.3 km/h 70 % 0 mm
23:15 -16.2 °C -19 °C 33751.6 hPa SSW 15.6 km/h 44.1 km/h 69 % 0 mm
23:30 -16.1 °C -19.1 °C 33731.3 hPa South 10.3 km/h 28.5 km/h 68 % 0 mm
23:45 -16 °C -18.9 °C 33717.8 hPa SSW 7.7 km/h 33.6 km/h 68 % 0 mm
Esan sääasema
Terveisin Weather Underground - 2.75 mb

Alkuperäinen skripti  Jim McMurry - jmcmurry@mwt.net Sovitettu myös templatelle  Wim van der Kuil - Leuven-Template.eu

Laitteet joita käytämme:

Sääasema
Davis VP2

Sääasemaohjelma
Cumulus

Sääaseman tietokone
Asus EeePC

Palveluntarjoaja
Suncomet

Davis VP2

Cumulus

Asus EeePC

Suncomet